Time;durP1;ratioP1;P1;durP2;ratioP2;P2;SDS_P1;SDS_P2;PMS_P1;PMS_P2;Temp;Humidity;BMP_temperature;BMP_pressure;BME280_temperature;BME280_humidity;BME280_pressure;Samples;Min_cycle;Max_cycle;Signal;HPM_P1;HPM_P2
2021/03/14 00:00:31;;;;;;;2.65;0.73;;;9.30;79.70;;;;;;5018716;28;20088;-74
2021/03/14 00:02:58;;;;;;;3.00;1.17;;;9.40;79.30;;;;;;5018599;28;20124;-74
2021/03/14 00:05:24;;;;;;;2.17;0.75;;;9.40;77.80;;;;;;5018964;28;20509;-73
2021/03/14 00:07:50;;;;;;;3.33;1.77;;;9.60;78.60;;;;;;5018874;28;20037;-74
2021/03/14 00:10:16;;;;;;;5.20;0.95;;;9.60;76.70;;;;;;5009368;28;20030;-74
2021/03/14 00:12:41;;;;;;;3.60;0.90;;;9.60;76.50;;;;;;5004103;28;20383;-74
2021/03/14 00:15:08;;;;;;;7.05;1.23;;;9.60;75.60;;;;;;5018589;28;20030;-74
2021/03/14 00:17:35;;;;;;;2.67;0.95;;;9.60;76.70;;;;;;5017974;28;20590;-74
2021/03/14 00:20:03;;;;;;;5.65;1.30;;;9.60;76.60;;;;;;5018637;28;20049;-74
2021/03/14 00:22:29;;;;;;;2.72;0.90;;;9.60;77.30;;;;;;5018491;28;20486;-75
2021/03/14 00:24:55;;;;;;;2.17;1.00;;;9.60;77.70;;;;;;5018634;28;20058;-74
2021/03/14 00:27:21;;;;;;;3.85;1.15;;;9.60;77.00;;;;;;5018228;28;20025;-74
2021/03/14 00:29:46;;;;;;;3.17;1.20;;;9.60;77.60;;;;;;5018350;28;20516;-74
2021/03/14 00:32:12;;;;;;;5.68;1.35;;;9.60;77.60;;;;;;5018162;28;20109;-74
2021/03/14 00:34:38;;;;;;;4.15;0.90;;;9.60;77.60;;;;;;5018254;28;20049;-74
2021/03/14 00:37:06;;;;;;;6.70;1.05;;;9.50;77.80;;;;;;5018359;28;20088;-74
2021/03/14 00:39:31;;;;;;;4.95;1.45;;;9.50;78.10;;;;;;5018436;28;20445;-74
2021/03/14 00:41:57;;;;;;;3.30;0.88;;;9.60;80.80;;;;;;5018505;28;20038;-74
2021/03/14 00:44:23;;;;;;;4.22;0.90;;;9.60;78.30;;;;;;5018343;28;20390;-74
2021/03/14 00:46:49;;;;;;;6.43;1.00;;;9.60;78.90;;;;;;5018407;28;20038;-74
2021/03/14 00:49:21;;;;;;;5.60;2.13;;;9.60;79.90;;;;;;5018261;28;20014;-74
2021/03/14 00:51:48;;;;;;;6.68;1.00;;;9.60;80.40;;;;;;5018512;28;20038;-74
2021/03/14 00:54:14;;;;;;;3.95;1.27;;;9.60;79.90;;;;;;5018443;28;20501;-74
2021/03/14 00:56:40;;;;;;;3.35;1.00;;;9.60;80.80;;;;;;5018428;28;20033;-74
2021/03/14 00:59:05;;;;;;;5.13;1.45;;;9.60;81.00;;;;;;5017929;28;20026;-74
2021/03/14 01:01:31;;;;;;;5.38;1.52;;;9.60;79.30;;;;;;5018368;28;20075;-74
2021/03/14 01:03:57;;;;;;;3.03;0.85;;;9.60;80.30;;;;;;5017899;28;20054;-74
2021/03/14 01:06:23;;;;;;;7.95;1.92;;;9.60;80.80;;;;;;5033357;28;20033;-74
2021/03/14 01:08:52;;;;;;;3.67;1.00;;;9.60;80.80;;;;;;5017418;28;20131;-74
2021/03/14 01:11:18;;;;;;;8.60;1.55;;;9.50;80.90;;;;;;5026957;28;20498;-74
2021/03/14 01:13:45;;;;;;;7.38;3.03;;;9.50;79.50;;;;;;4995080;28;20074;-74
2021/03/14 01:16:11;;;;;;;8.70;3.08;;;9.60;78.80;;;;;;4995452;28;20402;-74
2021/03/14 01:18:37;;;;;;;6.22;1.20;;;9.60;79.00;;;;;;4995394;28;20038;-74
2021/03/14 01:21:03;;;;;;;7.30;1.20;;;9.60;79.10;;;;;;4995483;28;20537;-74
2021/03/14 01:23:29;;;;;;;5.20;1.33;;;9.60;78.80;;;;;;4995319;28;20033;-74
2021/03/14 01:25:54;;;;;;;5.65;1.00;;;9.60;80.20;;;;;;5011010;28;20104;-74
2021/03/14 01:28:20;;;;;;;9.82;1.58;;;9.50;84.00;;;;;;5014345;28;20052;-74
2021/03/14 01:30:46;;;;;;;5.88;1.20;;;9.40;86.80;;;;;;5014851;28;20603;-74
2021/03/14 01:33:12;;;;;;;2.85;0.75;;;9.30;87.10;;;;;;5014915;28;20034;-74
2021/03/14 01:35:37;;;;;;;6.97;1.15;;;9.30;87.60;;;;;;5014383;28;20029;-74
2021/03/14 01:38:03;;;;;;;7.22;1.45;;;9.30;88.50;;;;;;5014764;28;20037;-74
2021/03/14 01:40:29;;;;;;;4.65;0.90;;;9.20;89.70;;;;;;5014522;28;20026;-74
2021/03/14 01:42:55;;;;;;;13.07;2.50;;;9.00;98.90;;;;;;5014463;28;20026;-74
2021/03/14 01:45:21;;;;;;;7.43;1.45;;;8.90;99.90;;;;;;5014547;28;20104;-74
2021/03/14 01:47:50;;;;;;;11.25;2.38;;;8.70;99.90;;;;;;5014313;28;20073;-74
2021/03/14 01:50:22;;;;;;;4.78;1.20;;;8.60;99.90;;;;;;5014329;28;20046;-74
2021/03/14 01:52:50;;;;;;;7.10;1.30;;;8.60;99.90;;;;;;5014431;28;20030;-74
2021/03/14 01:55:17;;;;;;;4.03;0.98;;;8.50;99.90;;;;;;5014189;28;20029;-74
2021/03/14 01:57:44;;;;;;;5.13;1.10;;;8.40;99.90;;;;;;5013874;28;20030;-74
2021/03/14 02:00:19;;;;;;;9.43;1.25;;;8.40;99.90;;;;;;5014095;28;20034;-74
2021/03/14 02:02:45;;;;;;;4.32;0.82;;;8.40;99.90;;;;;;5014351;28;20037;-74
2021/03/14 02:05:13;;;;;;;3.67;0.95;;;8.50;98.80;;;;;;5014178;28;20016;-74
2021/03/14 02:07:41;;;;;;;7.50;1.30;;;8.60;98.00;;;;;;5014065;28;20505;-74
2021/03/14 02:10:09;;;;;;;5.68;1.42;;;8.60;97.80;;;;;;5014055;28;20453;-74
2021/03/14 02:12:57;;;;;;;3.40;0.65;;;8.60;98.70;;;;;;5013449;28;20037;-74
2021/03/14 02:15:25;;;;;;;3.28;0.98;;;8.60;97.10;;;;;;5013934;28;20026;-74
2021/03/14 02:17:53;;;;;;;7.18;1.33;;;8.70;96.70;;;;;;5014008;28;20045;-74
2021/03/14 02:20:23;;;;;;;6.97;1.10;;;8.60;96.10;;;;;;5013555;28;20108;-74
2021/03/14 02:23:02;;;;;;;7.18;1.83;;;8.60;97.10;;;;;;5013299;28;20485;-74
2021/03/14 02:25:37;;;;;;;4.35;0.88;;;8.60;97.20;;;;;;5013841;28;20073;-74
2021/03/14 02:28:04;;;;;;;4.43;1.60;;;8.60;96.30;;;;;;5013606;28;20030;-74
2021/03/14 02:30:32;;;;;;;8.02;1.15;;;8.60;96.20;;;;;;5013562;28;20033;-74
2021/03/14 02:32:58;;;;;;;6.28;1.33;;;8.60;96.20;;;;;;5013861;28;20053;-74
2021/03/14 02:35:25;;;;;;;6.30;1.15;;;8.60;95.50;;;;;;5013531;28;20064;-74
2021/03/14 02:37:52;;;;;;;6.38;0.93;;;8.50;95.70;;;;;;5012821;28;20374;-74
2021/03/14 02:40:20;;;;;;;7.88;2.67;;;8.60;95.90;;;;;;5012933;28;20026;-74
2021/03/14 02:42:46;;;;;;;10.52;1.95;;;8.50;96.00;;;;;;5012572;28;20040;-74
2021/03/14 02:45:13;;;;;;;7.07;1.05;;;8.50;95.60;;;;;;5013491;28;20033;-74
2021/03/14 02:47:40;;;;;;;4.57;0.80;;;8.50;96.40;;;;;;5013017;28;20022;-74
2021/03/14 02:50:16;;;;;;;6.82;1.48;;;8.50;95.60;;;;;;5013333;28;20046;-74
2021/03/14 02:52:43;;;;;;;6.07;1.75;;;8.50;95.70;;;;;;5013434;28;20672;-74
2021/03/14 02:55:11;;;;;;;5.47;1.40;;;8.50;95.20;;;;;;5013056;28;20048;-74
2021/03/14 02:57:39;;;;;;;6.40;0.60;;;8.50;96.00;;;;;;5013112;28;20073;-74
2021/03/14 03:00:10;;;;;;;3.42;1.02;;;8.20;99.90;;;;;;5013246;28;20343;-74
2021/03/14 03:02:36;;;;;;;3.10;1.00;;;8.10;99.90;;;;;;5012516;28;20040;-74
2021/03/14 03:05:04;;;;;;;3.03;1.00;;;8.00;99.90;;;;;;5013140;28;20029;-74
2021/03/14 03:07:30;;;;;;;6.68;1.08;;;7.90;99.90;;;;;;5013162;28;20057;-74
2021/03/14 03:09:56;;;;;;;8.13;1.17;;;7.90;99.90;;;;;;5012523;28;20438;-74
2021/03/14 03:12:24;;;;;;;3.03;1.05;;;7.90;99.90;;;;;;5012719;28;20064;-74
2021/03/14 03:14:52;;;;;;;7.93;1.15;;;7.90;99.90;;;;;;5012901;28;20060;-74
2021/03/14 03:17:22;;;;;;;4.90;0.82;;;7.90;99.90;;;;;;5012564;28;20029;-74
2021/03/14 03:19:48;;;;;;;4.82;0.95;;;7.70;99.90;;;;;;5012848;28;20030;-74
2021/03/14 03:22:14;;;;;;;2.92;0.95;;;7.70;99.90;;;;;;5012832;28;20025;-74
2021/03/14 03:24:40;;;;;;;5.85;1.13;;;7.80;99.90;;;;;;5012401;28;20025;-74
2021/03/14 03:27:06;;;;;;;3.67;0.60;;;7.70;99.90;;;;;;5012646;28;20029;-74
2021/03/14 03:29:32;;;;;;;2.83;1.25;;;7.70;99.90;;;;;;5012835;28;20029;-74
2021/03/14 03:31:58;;;;;;;3.08;0.80;;;7.80;99.90;;;;;;5012282;28;20038;-74
2021/03/14 03:34:23;;;;;;;5.40;0.90;;;7.90;99.90;;;;;;5012799;28;20034;-74
2021/03/14 03:36:49;;;;;;;3.67;1.55;;;7.80;99.90;;;;;;5012613;28;20045;-74
2021/03/14 03:39:15;;;;;;;6.35;1.10;;;7.80;99.90;;;;;;5012321;28;20029;-74
2021/03/14 03:42:03;;;;;;;6.15;0.80;;;7.80;99.90;;;;;;5012530;28;20033;-74
2021/03/14 03:44:34;;;;;;;7.70;1.00;;;7.80;99.90;;;;;;5012597;28;20121;-74
2021/03/14 03:47:00;;;;;;;3.17;0.95;;;7.80;99.90;;;;;;5011130;28;20046;-74
2021/03/14 03:49:30;;;;;;;3.60;0.80;;;7.80;99.90;;;;;;5012102;28;20052;-74
2021/03/14 03:51:57;;;;;;;4.68;0.93;;;7.70;99.90;;;;;;5012494;28;20041;-74
2021/03/14 03:54:24;;;;;;;4.18;0.80;;;7.80;99.90;;;;;;5012184;28;20026;-74
2021/03/14 03:56:53;;;;;;;3.58;0.52;;;7.80;99.90;;;;;;5012325;28;20065;-74
2021/03/14 03:59:19;;;;;;;3.38;0.90;;;7.80;99.90;;;;;;5012242;28;20080;-74
2021/03/14 04:01:46;;;;;;;5.85;1.25;;;7.70;99.90;;;;;;5011134;28;20030;-74
2021/03/14 04:04:12;;;;;;;3.65;0.95;;;7.70;99.90;;;;;;5012303;28;20018;-74
2021/03/14 04:06:39;;;;;;;3.13;0.52;;;7.70;99.90;;;;;;5012482;28;20105;-74
2021/03/14 04:09:08;;;;;;;2.72;0.85;;;7.70;99.90;;;;;;5011910;28;20018;-74
2021/03/14 04:11:37;;;;;;;4.55;0.70;;;7.70;99.90;;;;;;5012527;28;20030;-74
2021/03/14 04:14:04;;;;;;;5.85;1.23;;;7.80;99.90;;;;;;5011853;28;20044;-74
2021/03/14 04:16:31;;;;;;;3.47;0.90;;;7.70;99.90;;;;;;5012221;28;20508;-74
2021/03/14 04:18:58;;;;;;;1.83;0.68;;;7.70;99.90;;;;;;5012216;28;20025;-74
2021/03/14 04:21:25;;;;;;;4.68;0.80;;;7.70;99.90;;;;;;5012352;28;20077;-74
2021/03/14 04:23:52;;;;;;;2.53;0.68;;;7.70;99.90;;;;;;5011794;28;20045;-74
2021/03/14 04:26:20;;;;;;;3.28;0.60;;;7.70;99.90;;;;;;5011701;28;20509;-74
2021/03/14 04:28:47;;;;;;;4.10;0.80;;;7.80;99.90;;;;;;5011524;28;20061;-74
2021/03/14 04:31:13;;;;;;;1.65;0.70;;;7.70;99.90;;;;;;5012110;28;20052;-74
2021/03/14 04:33:42;;;;;;;3.05;0.93;;;7.80;99.90;;;;;;5012274;28;20045;-74
2021/03/14 04:36:09;;;;;;;1.65;0.45;;;7.70;99.90;;;;;;5011749;28;20033;-74
2021/03/14 04:38:36;;;;;;;1.70;0.40;;;7.70;99.90;;;;;;5011616;28;20549;-74
2021/03/14 04:41:03;;;;;;;1.13;0.50;;;7.70;99.90;;;;;;5011875;28;20418;-74
2021/03/14 04:43:30;;;;;;;2.38;0.95;;;7.70;99.90;;;;;;5011848;28;20025;-74
2021/03/14 04:45:57;;;;;;;4.32;1.25;;;7.70;99.90;;;;;;5014728;28;20030;-74
2021/03/14 04:48:23;;;;;;;3.08;0.80;;;7.60;99.90;;;;;;5015372;28;20041;-74
2021/03/14 04:50:51;;;;;;;2.05;0.60;;;7.60;99.90;;;;;;5015526;28;20124;-74
2021/03/14 04:53:20;;;;;;;1.67;0.50;;;7.60;99.90;;;;;;5015390;28;20037;-74
2021/03/14 04:55:47;;;;;;;2.97;0.32;;;7.70;99.90;;;;;;5015510;28;20032;-74
2021/03/14 04:58:17;;;;;;;0.52;0.20;;;7.70;99.90;;;;;;5015414;28;20490;-74
2021/03/14 05:00:43;;;;;;;1.70;0.40;;;7.70;99.90;;;;;;5015260;28;20057;-74
2021/03/14 05:03:12;;;;;;;2.17;0.35;;;7.70;99.90;;;;;;5015096;28;20095;-74
2021/03/14 05:05:41;;;;;;;3.42;0.70;;;7.70;99.90;;;;;;5014798;28;20812;-74
2021/03/14 05:08:10;;;;;;;1.73;0.30;;;7.60;99.90;;;;;;5015376;28;20549;-74
2021/03/14 05:10:37;;;;;;;2.75;0.30;;;7.70;99.90;;;;;;5006630;28;20137;-74
2021/03/14 05:13:04;;;;;;;2.15;0.50;;;7.60;99.90;;;;;;5015152;28;20053;-74
2021/03/14 05:15:30;;;;;;;2.08;1.13;;;7.70;99.90;;;;;;5015149;28;20038;-74
2021/03/14 05:17:56;;;;;;;4.55;1.48;;;7.70;99.90;;;;;;5014918;28;20096;-74
2021/03/14 05:20:23;;;;;;;5.55;0.70;;;7.60;99.90;;;;;;5014778;28;20114;-74
2021/03/14 05:22:50;;;;;;;6.90;0.73;;;7.60;99.90;;;;;;5015222;28;20386;-74
2021/03/14 05:25:18;;;;;;;3.40;0.70;;;7.50;99.90;;;;;;5015153;28;20032;-74
2021/03/14 05:27:49;;;;;;;9.65;1.27;;;7.40;99.90;;;;;;5015048;28;20022;-74
2021/03/14 05:30:22;;;;;;;4.13;1.00;;;7.20;99.90;;;;;;5014949;28;20030;-74
2021/03/14 05:32:50;;;;;;;5.80;0.93;;;7.10;99.90;;;;;;5014361;28;20033;-74
2021/03/14 05:35:18;;;;;;;5.43;1.15;;;7.10;99.90;;;;;;5014360;28;20026;-74
2021/03/14 05:37:44;;;;;;;8.88;1.92;;;7.00;99.90;;;;;;5014595;28;20112;-74
2021/03/14 05:40:10;;;;;;;10.07;2.03;;;7.00;99.90;;;;;;5014069;28;20114;-74
2021/03/14 05:42:36;;;;;;;10.13;1.88;;;7.00;99.90;;;;;;5013537;28;20025;-74
2021/03/14 05:45:02;;;;;;;12.18;2.28;;;6.80;99.90;;;;;;5014367;28;20030;-73
2021/03/14 05:47:28;;;;;;;9.52;2.10;;;6.70;99.90;;;;;;5014357;28;20036;-74
2021/03/14 05:49:54;;;;;;;11.25;2.72;;;6.80;99.90;;;;;;5013924;28;20140;-74
2021/03/14 05:52:20;;;;;;;13.18;2.80;;;6.80;99.90;;;;;;5013182;28;20046;-74
2021/03/14 05:54:47;;;;;;;12.18;2.50;;;6.80;99.90;;;;;;5014191;28;20026;-74
2021/03/14 05:57:17;;;;;;;10.15;2.15;;;6.90;99.90;;;;;;5013778;28;20064;-74
2021/03/14 05:59:53;;;;;;;11.38;2.20;;;6.90;99.90;;;;;;5014164;28;20026;-74
2021/03/14 06:02:20;;;;;;;10.98;1.77;;;6.90;99.90;;;;;;5013611;28;20038;-74
2021/03/14 06:04:47;;;;;;;9.35;3.35;;;7.00;99.90;;;;;;5013860;28;20022;-74
2021/03/14 06:07:14;;;;;;;12.93;1.42;;;6.90;99.90;;;;;;5013980;28;20398;-74
2021/03/14 06:09:40;;;;;;;7.45;1.65;;;7.00;99.90;;;;;;5009837;28;20101;-74
2021/03/14 06:12:15;;;;;;;11.05;2.17;;;7.00;99.90;;;;;;4994635;28;20053;-74
2021/03/14 06:14:41;;;;;;;7.00;1.50;;;7.00;99.90;;;;;;5013284;28;20062;-74
2021/03/14 06:17:07;;;;;;;8.25;1.60;;;7.00;99.90;;;;;;5013851;28;20400;-75
2021/03/14 06:19:33;;;;;;;4.45;1.45;;;7.00;99.90;;;;;;5013684;28;20041;-74
2021/03/14 06:22:22;;;;;;;8.85;1.35;;;7.10;99.90;;;;;;5013928;28;20022;-74
2021/03/14 06:24:49;;;;;;;8.55;1.38;;;7.00;99.90;;;;;;5013438;28;20026;-74
2021/03/14 06:27:34;;;;;;;6.80;0.93;;;7.00;99.90;;;;;;5013680;28;20402;-74
2021/03/14 06:30:01;;;;;;;4.57;1.38;;;7.00;99.90;;;;;;5013413;28;20490;-74
2021/03/14 06:32:27;;;;;;;5.60;1.15;;;7.00;99.90;;;;;;5013160;28;20375;-75
2021/03/14 06:35:42;;;;;;;5.47;1.13;;;7.00;99.90;;;;;;5028218;28;20030;-74
2021/03/14 06:38:22;;;;;;;7.15;1.10;;;7.00;99.90;;;;;;4972481;28;20038;-74
2021/03/14 06:40:50;;;;;;;8.60;1.20;;;7.00;99.90;;;;;;4952991;29;20058;-74
2021/03/14 06:43:16;;;;;;;4.75;1.00;;;7.00;99.90;;;;;;4959252;28;20027;-74
2021/03/14 06:45:43;;;;;;;5.18;1.30;;;7.00;99.90;;;;;;4971965;28;20061;-74
2021/03/14 06:48:09;;;;;;;9.65;1.15;;;7.00;99.90;;;;;;4970871;28;20435;-74
2021/03/14 06:50:37;;;;;;;6.80;1.10;;;7.00;99.90;;;;;;4971921;28;20126;-74
2021/03/14 06:53:21;;;;;;;7.13;1.20;;;6.90;99.90;;;;;;4971141;28;20035;-74
2021/03/14 06:55:49;;;;;;;8.95;2.38;;;6.90;99.90;;;;;;4971602;28;20043;-74
2021/03/14 06:58:34;;;;;;;8.40;1.52;;;6.90;99.90;;;;;;4970275;28;20027;-74
2021/03/14 07:01:17;;;;;;;7.32;1.40;;;6.90;99.90;;;;;;4970605;28;20591;-75
2021/03/14 07:03:45;;;;;;;4.68;0.98;;;6.90;99.90;;;;;;4970896;28;20027;-74
2021/03/14 07:06:18;;;;;;;10.75;1.08;;;6.80;99.90;;;;;;4971812;28;20047;-74
2021/03/14 07:08:45;;;;;;;9.82;1.90;;;6.70;99.90;;;;;;4971396;28;20483;-74
2021/03/14 07:11:12;;;;;;;6.55;1.50;;;6.70;99.90;;;;;;4980436;28;20504;-74
2021/03/14 07:13:39;;;;;;;9.45;1.67;;;6.70;99.90;;;;;;5012333;28;20025;-74
2021/03/14 07:16:06;;;;;;;9.88;2.17;;;6.70;99.90;;;;;;5012731;28;20044;-74
2021/03/14 07:18:34;;;;;;;9.10;1.98;;;6.80;99.90;;;;;;5010920;28;20088;-73
2021/03/14 07:21:00;;;;;;;6.95;1.27;;;6.80;99.90;;;;;;4998775;28;20026;-73
2021/03/14 07:23:33;;;;;;;8.30;1.70;;;6.80;99.90;;;;;;5006743;28;20366;-73
2021/03/14 07:25:59;;;;;;;3.75;0.80;;;6.80;99.90;;;;;;5006376;28;20033;-73
2021/03/14 07:28:26;;;;;;;7.80;2.35;;;6.90;99.90;;;;;;5003498;28;20037;-74
2021/03/14 07:30:53;;;;;;;4.70;0.90;;;6.90;99.90;;;;;;5002550;28;20030;-73
2021/03/14 07:33:20;;;;;;;4.53;1.25;;;6.90;99.90;;;;;;4996479;28;20046;-73
2021/03/14 07:35:46;;;;;;;7.22;1.35;;;7.00;99.90;;;;;;5007066;28;20121;-73
2021/03/14 07:38:13;;;;;;;6.78;1.33;;;7.00;99.90;;;;;;5009576;28;20414;-73
2021/03/14 07:40:38;;;;;;;8.48;2.20;;;7.00;99.90;;;;;;4999047;28;20104;-73
2021/03/14 07:43:05;;;;;;;4.88;1.20;;;7.00;99.90;;;;;;5012512;28;20113;-74
2021/03/14 07:45:32;;;;;;;6.20;1.70;;;7.00;99.90;;;;;;5010540;28;20026;-73
2021/03/14 07:47:59;;;;;;;7.78;2.97;;;7.10;99.90;;;;;;5011246;28;20057;-73
2021/03/14 07:50:32;;;;;;;4.70;1.25;;;7.20;99.90;;;;;;5003963;28;20043;-73
2021/03/14 07:53:06;;;;;;;6.80;1.40;;;7.40;99.90;;;;;;5009348;28;20034;-74
2021/03/14 07:55:33;;;;;;;7.45;1.67;;;7.90;99.90;;;;;;5012196;28;20040;-73
2021/03/14 07:57:58;;;;;;;10.30;2.50;;;8.00;99.90;;;;;;5011879;28;20021;-74
2021/03/14 08:00:30;;;;;;;9.43;1.63;;;8.00;99.90;;;;;;5011187;28;20383;-75
2021/03/14 08:03:01;;;;;;;19.48;10.20;;;7.90;99.90;;;;;;5010159;28;20036;-75
2021/03/14 08:05:48;;;;;;;10.60;2.78;;;7.80;99.10;;;;;;5012446;28;20065;-79
2021/03/14 08:08:25;;;;;;;8.93;1.80;;;7.60;98.10;;;;;;5012340;28;20054;-75
2021/03/14 08:10:52;;;;;;;3.53;1.30;;;7.50;97.30;;;;;;4998939;28;20026;-81
2021/03/14 08:13:30;;;;;;;18.10;9.05;;;7.60;99.50;;;;;;5004584;28;20029;-81
2021/03/14 08:16:04;;;;;;;6.85;1.33;;;7.50;97.70;;;;;;5005242;28;20045;-78
2021/03/14 08:18:46;;;;;;;2.75;0.93;;;7.60;96.90;;;;;;5007995;28;20042;-79
2021/03/14 08:21:21;;;;;;;5.57;0.85;;;7.30;92.40;;;;;;5015395;28;20100;-78
2021/03/14 08:23:51;;;;;;;10.00;2.20;;;7.50;92.40;;;;;;5011471;28;20060;-78
2021/03/14 08:26:27;;;;;;;7.15;1.30;;;7.40;93.10;;;;;;5011212;28;20040;-77
2021/03/14 08:28:53;;;;;;;7.80;1.27;;;7.40;91.20;;;;;;5014905;28;20034;-78
2021/03/14 08:31:38;;;;;;;2.83;0.70;;;7.40;93.00;;;;;;5014777;28;20360;-77
2021/03/14 08:34:04;;;;;;;7.05;1.23;;;7.30;90.30;;;;;;5011935;28;20113;-77
2021/03/14 08:36:38;;;;;;;4.80;0.60;;;7.40;91.50;;;;;;5014357;28;20026;-77
2021/03/14 08:39:08;;;;;;;6.95;1.10;;;7.60;91.40;;;;;;5015290;28;20022;-77
2021/03/14 08:41:47;;;;;;;4.43;0.88;;;7.90;88.90;;;;;;5029562;28;20030;-75
2021/03/14 08:44:34;;;;;;;4.43;1.00;;;8.30;89.30;;;;;;5013645;28;20466;-78
2021/03/14 08:47:03;;;;;;;2.30;1.10;;;8.40;87.30;;;;;;5014881;28;20034;-79
2021/03/14 08:49:29;;;;;;;2.47;0.70;;;8.00;86.90;;;;;;5013947;28;20032;-83
2021/03/14 08:51:56;;;;;;;3.55;0.98;;;7.80;85.00;;;;;;5030657;28;20821;-75
2021/03/14 08:54:40;;;;;;;4.25;0.88;;;7.60;88.40;;;;;;5015237;28;20103;-79
2021/03/14 08:57:10;;;;;;;3.75;1.00;;;7.60;87.80;;;;;;5015310;28;20529;-80
2021/03/14 08:59:48;;;;;;;6.85;0.93;;;7.70;90.10;;;;;;5015108;28;20390;-75
2021/03/14 09:02:34;;;;;;;5.05;1.00;;;7.80;86.70;;;;;;5015578;28;20030;-77
2021/03/14 09:05:14;;;;;;;5.53;1.75;;;7.80;86.10;;;;;;5015290;28;20026;-75
2021/03/14 09:07:40;;;;;;;;;;;7.80;90.30;;;;;;5015246;28;20466;-78
2021/03/14 09:10:13;;;;;;;6.38;1.17;;;7.90;90.30;;;;;;5006989;28;19956;-76
2021/03/14 09:12:39;;;;;;;3.22;0.60;;;8.00;91.60;;;;;;5013444;28;20049;-74
2021/03/14 09:15:07;;;;;;;6.43;1.23;;;8.30;91.20;;;;;;5015164;28;20050;-76
2021/03/14 09:17:42;;;;;;;6.65;1.10;;;8.60;90.80;;;;;;5014766;28;20088;-72
2021/03/14 09:20:09;;;;;;;5.38;1.30;;;8.90;90.00;;;;;;5015043;28;20029;-74
2021/03/14 09:22:36;;;;;;;4.25;2.03;;;9.00;90.70;;;;;;5015058;28;20022;-74
2021/03/14 09:25:11;;;;;;;5.57;1.23;;;9.00;90.60;;;;;;5015095;28;20026;-74
2021/03/14 09:27:38;;;;;;;8.32;1.60;;;8.70;92.70;;;;;;5003729;28;20033;-78
2021/03/14 09:30:12;;;;;;;6.05;1.90;;;8.50;94.20;;;;;;5014303;28;20054;-73
2021/03/14 09:33:01;;;;;;;7.35;1.10;;;8.30;94.50;;;;;;5014763;28;20109;-74
2021/03/14 09:35:32;;;;;;;8.00;1.83;;;8.10;95.90;;;;;;5014805;28;20493;-73
2021/03/14 09:38:02;;;;;;;7.05;1.33;;;7.80;98.60;;;;;;5013965;28;20929;-73
2021/03/14 09:40:30;;;;;;;7.45;1.70;;;7.70;99.90;;;;;;5014620;28;20376;-73
2021/03/14 09:43:09;;;;;;;8.75;2.17;;;7.60;99.90;;;;;;5013605;28;20030;-73
2021/03/14 09:45:36;;;;;;;9.98;2.38;;;7.60;99.90;;;;;;5014073;28;20030;-73
2021/03/14 09:48:04;;;;;;;7.78;1.40;;;7.30;99.50;;;;;;5013997;28;20026;-73
2021/03/14 09:50:40;;;;;;;8.57;3.25;;;7.20;99.90;;;;;;5012400;28;20046;-75
2021/03/14 09:53:07;;;;;;;6.60;1.38;;;7.20;99.80;;;;;;5013971;28;20390;-75
2021/03/14 09:55:39;;;;;;;8.05;1.45;;;7.30;99.60;;;;;;5013360;28;20033;-75
2021/03/14 09:58:09;;;;;;;10.30;3.90;;;7.40;97.90;;;;;;5014214;28;20040;-75
2021/03/14 10:00:35;;;;;;;10.10;2.20;;;7.40;99.90;;;;;;5012493;28;20119;-75
2021/03/14 10:03:03;;;;;;;7.60;1.13;;;7.40;99.40;;;;;;5012628;28;20014;-75
2021/03/14 10:05:38;;;;;;;6.10;1.23;;;7.30;99.30;;;;;;5013885;28;20473;-75
2021/03/14 10:08:04;;;;;;;11.65;2.83;;;7.20;99.30;;;;;;5013879;28;20478;-75
2021/03/14 10:10:30;;;;;;;6.72;0.70;;;7.10;99.90;;;;;;5013835;28;20030;-75
2021/03/14 10:12:58;;;;;;;5.18;1.58;;;7.00;99.90;;;;;;5013248;28;20065;-75
2021/03/14 10:15:24;;;;;;;6.43;1.55;;;7.00;99.90;;;;;;5014195;28;20018;-75
2021/03/14 10:17:50;;;;;;;5.57;1.63;;;7.00;99.90;;;;;;5013842;28;20030;-75
2021/03/14 10:20:20;;;;;;;4.30;1.02;;;7.00;99.90;;;;;;5013997;28;20018;-75
2021/03/14 10:22:46;;;;;;;2.20;0.80;;;7.00;99.90;;;;;;5013332;28;20030;-75
2021/03/14 10:25:32;;;;;;;4.07;0.90;;;7.10;99.20;;;;;;5013293;28;20041;-75
2021/03/14 10:28:15;;;;;;;2.13;0.70;;;7.30;97.60;;;;;;5013734;28;20028;-75
2021/03/14 10:30:43;;;;;;;1.90;0.50;;;7.60;98.00;;;;;;5013403;28;20112;-75
2021/03/14 10:33:13;;;;;;;2.28;0.60;;;8.10;96.40;;;;;;5012946;28;20120;-75
2021/03/14 10:35:41;;;;;;;2.47;0.68;;;8.10;97.70;;;;;;5013606;28;20120;-74
2021/03/14 10:38:22;;;;;;;4.05;0.90;;;8.00;96.30;;;;;;5013719;28;20479;-75
2021/03/14 10:40:49;;;;;;;2.20;0.70;;;8.20;97.90;;;;;;5013343;28;20021;-75
2021/03/14 10:43:21;;;;;;;3.65;1.00;;;8.10;95.70;;;;;;5011928;28;20041;-76
2021/03/14 10:45:48;;;;;;;4.20;0.80;;;8.40;95.10;;;;;;5013286;28;20498;-77
2021/03/14 10:48:14;;;;;;;4.55;0.73;;;8.60;95.00;;;;;;5013587;28;20030;-77
2021/03/14 10:50:40;;;;;;;3.95;1.23;;;8.70;94.30;;;;;;5011589;28;20061;-77
2021/03/14 10:53:10;;;;;;;5.22;1.73;;;9.60;94.50;;;;;;5013134;28;20030;-79
2021/03/14 10:55:37;;;;;;;8.65;1.85;;;10.80;90.90;;;;;;5012704;28;20029;-78
2021/03/14 10:58:06;;;;;;;5.65;1.83;;;10.60;86.90;;;;;;5013019;28;20386;-78
2021/03/14 11:00:33;;;;;;;6.38;1.02;;;10.00;91.40;;;;;;5012890;28;20022;-79
2021/03/14 11:03:00;;;;;;;7.88;1.70;;;9.70;91.90;;;;;;5013389;28;20026;-78
2021/03/14 11:05:26;;;;;;;9.38;1.35;;;9.70;91.40;;;;;;5013047;28;20505;-78
2021/03/14 11:08:02;;;;;;;5.30;0.93;;;9.90;91.40;;;;;;5012701;28;20061;-78
2021/03/14 11:10:28;;;;;;;2.78;0.95;;;9.60;91.10;;;;;;5002218;28;20061;-76
2021/03/14 11:12:54;;;;;;;3.60;1.15;;;9.40;91.00;;;;;;4993409;28;20034;-75
2021/03/14 11:15:24;;;;;;;2.47;1.38;;;9.00;90.50;;;;;;5003350;28;20033;-76
2021/03/14 11:17:51;;;;;;;5.07;1.05;;;9.00;91.00;;;;;;5013039;28;20022;-76
2021/03/14 11:20:19;;;;;;;8.55;2.65;;;9.10;90.40;;;;;;5012759;28;20068;-74
2021/03/14 11:22:48;;;;;;;1.10;0.43;;;8.80;90.00;;;;;;5012628;28;20108;-75
2021/03/14 11:25:14;;;;;;;1.83;0.60;;;9.10;87.40;;;;;;5012201;28;20022;-74
2021/03/14 11:27:40;;;;;;;1.55;0.70;;;10.40;86.40;;;;;;5012149;28;20041;-75
2021/03/14 11:30:06;;;;;;;2.28;0.40;;;12.50;74.50;;;;;;5012122;28;20037;-74
2021/03/14 11:32:32;;;;;;;2.42;0.40;;;11.60;74.00;;;;;;5012182;28;20026;-74
2021/03/14 11:34:57;;;;;;;2.45;0.50;;;10.40;76.50;;;;;;5011811;28;20034;-74
2021/03/14 11:37:23;;;;;;;2.30;0.75;;;10.10;80.20;;;;;;5010328;28;20029;-74
2021/03/14 11:39:49;;;;;;;2.92;0.60;;;9.70;80.70;;;;;;5012023;28;20072;-74
2021/03/14 11:42:14;;;;;;;1.85;0.50;;;9.80;82.70;;;;;;5012014;28;20022;-74
2021/03/14 11:44:40;;;;;;;2.60;0.77;;;9.60;82.10;;;;;;4992938;28;20030;-74
2021/03/14 11:47:06;;;;;;;2.00;0.47;;;9.60;84.20;;;;;;5003852;28;20022;-74
2021/03/14 11:49:32;;;;;;;6.20;2.17;;;9.70;83.10;;;;;;5012538;28;20100;-74
2021/03/14 11:51:58;;;;;;;2.70;1.15;;;9.90;85.10;;;;;;5012281;28;20528;-75
2021/03/14 11:54:23;;;;;;;1.83;1.02;;;10.40;81.40;;;;;;5012083;28;20387;-74
2021/03/14 11:56:51;;;;;;;11.52;10.32;;;10.80;78.60;;;;;;5011713;28;20482;-74
2021/03/14 11:59:17;;;;;;;4.20;1.13;;;12.40;75.00;;;;;;5012071;28;20045;-74
2021/03/14 12:01:43;;;;;;;10.13;8.05;;;13.00;68.40;;;;;;5012609;28;20494;-74
2021/03/14 12:04:09;;;;;;;3.70;1.50;;;14.50;68.80;;;;;;5012424;28;20033;-74
2021/03/14 12:06:35;;;;;;;3.03;1.17;;;12.20;68.70;;;;;;5011016;28;20034;-75
2021/03/14 12:09:03;;;;;;;2.30;0.95;;;12.00;73.60;;;;;;5011883;28;20041;-74
2021/03/14 12:11:29;;;;;;;4.53;1.88;;;10.80;77.90;;;;;;5011491;28;20033;-74
2021/03/14 12:13:54;;;;;;;4.57;1.13;;;10.40;86.10;;;;;;5012207;28;20030;-74
2021/03/14 12:16:20;;;;;;;3.67;0.80;;;10.70;84.00;;;;;;5012174;28;20081;-74
2021/03/14 12:18:46;;;;;;;3.17;1.10;;;10.70;82.50;;;;;;5011346;28;20482;-74
2021/03/14 12:21:12;;;;;;;2.25;0.60;;;10.80;83.70;;;;;;5011111;28;20081;-74
2021/03/14 12:23:38;;;;;;;1.35;0.30;;;9.30;87.10;;;;;;5012083;28;20018;-74
2021/03/14 12:26:04;;;;;;;0.93;0.45;;;8.00;91.70;;;;;;5010730;28;20038;-75
2021/03/14 12:28:30;;;;;;;2.08;0.45;;;7.30;94.00;;;;;;5011612;28;20351;-74
2021/03/14 12:30:57;;;;;;;0.55;0.40;;;7.00;96.60;;;;;;5011880;28;20025;-74
2021/03/14 12:33:23;;;;;;;0.98;0.30;;;7.00;97.70;;;;;;5011162;28;20034;-74
2021/03/14 12:35:49;;;;;;;1.40;0.35;;;6.90;98.70;;;;;;5011279;28;20121;-73
2021/03/14 12:38:16;;;;;;;2.08;1.02;;;6.90;98.70;;;;;;5011038;28;20018;-74
2021/03/14 12:40:46;;;;;;;0.88;0.40;;;6.70;98.40;;;;;;5011835;28;20022;-71
2021/03/14 12:43:16;;;;;;;0.52;0.28;;;6.50;99.10;;;;;;5011905;28;20026;-74
2021/03/14 12:45:43;;;;;;;0.20;0.15;;;6.20;99.90;;;;;;5010762;28;20106;-74
2021/03/14 12:48:09;;;;;;;2.55;0.40;;;6.10;99.90;;;;;;5011809;28;20505;-74
2021/03/14 12:50:35;;;;;;;3.58;0.35;;;6.30;99.90;;;;;;5011210;28;20053;-74
2021/03/14 12:53:01;;;;;;;2.97;0.28;;;6.10;99.90;;;;;;5011714;28;20379;-74
2021/03/14 12:55:27;;;;;;;0.32;0.28;;;5.90;99.90;;;;;;5010360;28;20037;-76
2021/03/14 12:57:53;;;;;;;0.60;0.30;;;5.80;99.90;;;;;;5011905;28;20433;-75
2021/03/14 13:00:19;;;;;;;1.85;0.50;;;5.70;99.90;;;;;;5011675;28;20494;-73
2021/03/14 13:02:46;;;;;;;0.40;0.20;;;5.70;99.90;;;;;;4979942;28;20081;-73